Time;durP1;ratioP1;P1;durP2;ratioP2;P2;SDS_P1;SDS_P2;PMS_P1;PMS_P2;Temp;Humidity;BMP_temperature;BMP_pressure;BME280_temperature;BME280_humidity;BME280_pressure;Samples;Min_cycle;Max_cycle;Signal;HPM_P1;HPM_P2
2023/05/21 00:02:17;;;;;;;17.77;15.88;;;13.60;99.90;;;12.77;100.00;97583.72;4962607;28;20183;-73
2023/05/21 00:04:44;;;;;;;17.50;15.40;;;13.60;99.90;;;12.75;100.00;97580.38;4964858;28;20048;-73
2023/05/21 00:07:12;;;;;;;18.63;15.38;;;13.60;99.90;;;12.70;100.00;97580.59;4983304;28;20548;-73
2023/05/21 00:09:39;;;;;;;18.63;15.32;;;13.60;99.90;;;12.69;100.00;97580.66;4989436;28;20537;-74
2023/05/21 00:12:09;;;;;;;19.30;15.88;;;13.50;99.90;;;12.66;100.00;97581.66;4989210;28;20046;-73
2023/05/21 00:14:36;;;;;;;17.33;15.52;;;13.60;99.90;;;12.64;100.00;97580.91;4990698;28;20496;-73
2023/05/21 00:17:04;;;;;;;22.45;16.52;;;13.50;99.90;;;12.65;100.00;97579.97;4979944;28;20080;-73
2023/05/21 00:19:32;;;;;;;17.38;15.23;;;13.50;99.90;;;12.68;100.00;97585.03;4987445;28;20058;-73
2023/05/21 00:22:02;;;;;;;20.65;16.15;;;13.50;99.90;;;12.74;100.00;97574.28;4965222;28;20051;-73
2023/05/21 00:24:30;;;;;;;17.90;15.40;;;13.60;99.90;;;12.73;100.00;97571.78;4982139;28;20046;-73
2023/05/21 00:26:57;;;;;;;20.27;16.15;;;13.50;99.90;;;12.75;100.00;97572.56;4989288;28;20078;-74
2023/05/21 00:29:26;;;;;;;20.35;17.30;;;13.60;99.90;;;12.74;100.00;97570.84;4985617;28;20050;-74
2023/05/21 00:31:56;;;;;;;18.77;16.77;;;13.50;99.90;;;12.75;100.00;97568.19;4970335;28;20137;-74
2023/05/21 00:34:23;;;;;;;18.65;16.67;;;13.60;99.90;;;12.74;100.00;97565.63;4976850;28;20050;-74
2023/05/21 00:36:52;;;;;;;21.00;17.90;;;13.60;99.90;;;12.72;100.00;97564.88;4975995;28;20050;-74
2023/05/21 00:39:19;;;;;;;20.33;17.65;;;13.50;99.90;;;12.73;100.00;97564.81;4971231;28;20117;-74
2023/05/21 00:41:47;;;;;;;19.42;16.55;;;13.60;99.90;;;12.71;100.00;97574.47;4991112;28;20042;-73
2023/05/21 00:44:17;;;;;;;22.98;17.27;;;13.50;99.90;;;12.75;100.00;97567.34;4991835;28;20105;-73
2023/05/21 00:46:44;;;;;;;22.25;17.85;;;13.60;99.90;;;12.76;100.00;97569.00;4970814;28;20045;-73
2023/05/21 00:49:12;;;;;;;20.05;16.92;;;13.60;99.90;;;12.74;100.00;97569.09;4972848;28;20046;-73
2023/05/21 00:51:39;;;;;;;18.63;16.13;;;13.60;99.90;;;12.78;100.00;97575.00;4993795;28;20097;-73
2023/05/21 00:54:07;;;;;;;20.38;16.83;;;13.60;99.90;;;12.75;100.00;97569.94;4990224;28;20128;-74
2023/05/21 00:56:34;;;;;;;19.45;17.40;;;13.50;99.90;;;12.73;100.00;97563.97;4991635;28;20630;-73
2023/05/21 00:59:04;;;;;;;23.45;18.17;;;13.50;99.90;;;12.65;100.00;97566.13;4977316;28;20049;-73
2023/05/21 01:01:32;;;;;;;20.33;18.08;;;13.50;99.90;;;12.61;100.00;97560.22;4988862;28;20068;-74
2023/05/21 01:04:01;;;;;;;22.67;18.10;;;13.50;99.90;;;12.62;100.00;97566.28;4987099;28;20054;-73
2023/05/21 01:06:28;;;;;;;20.70;17.58;;;13.50;99.90;;;12.62;100.00;97566.28;4986573;28;20467;-73
2023/05/21 01:08:57;;;;;;;20.75;17.55;;;13.40;99.90;;;12.61;100.00;97572.41;4975059;28;20439;-73
2023/05/21 01:11:40;;;;;;;24.52;18.23;;;13.40;99.90;;;12.64;100.00;97567.88;4972729;28;20807;-73
2023/05/21 01:14:09;;;;;;;20.83;18.55;;;13.50;99.90;;;12.67;100.00;97569.47;4991109;28;20469;-73
2023/05/21 01:16:38;;;;;;;23.38;18.52;;;13.50;99.90;;;12.67;100.00;97566.88;4996952;28;20053;-73
2023/05/21 01:19:09;;;;;;;23.70;18.85;;;13.50;99.90;;;12.68;100.00;97556.41;5012262;28;20597;-73
2023/05/21 01:21:44;;;;;;;21.55;18.83;;;13.50;99.90;;;12.64;100.00;97551.44;4995921;28;20045;-73
2023/05/21 01:24:14;;;;;;;20.63;17.42;;;13.50;99.90;;;12.64;100.00;97544.44;5011693;28;20438;-73
2023/05/21 01:26:42;;;;;;;22.80;19.38;;;13.50;99.90;;;12.64;100.00;97547.06;4994034;28;20084;-73
2023/05/21 01:29:11;;;;;;;22.85;18.95;;;13.50;99.90;;;12.64;100.00;97551.44;5011055;28;20079;-73
2023/05/21 01:32:00;;;;;;;21.70;18.60;;;13.50;99.90;;;12.69;100.00;97552.03;5010101;28;20050;-73
2023/05/21 01:35:07;;;;;;;21.85;19.50;;;13.50;99.90;;;12.66;100.00;97553.03;4998073;28;20801;-73
2023/05/21 01:37:46;;;;;;;22.63;18.40;;;13.50;99.90;;;12.67;100.00;97549.50;4983244;28;20129;-73
2023/05/21 01:40:40;;;;;;;21.33;17.98;;;13.50;99.90;;;12.66;100.00;97546.97;4993505;28;20136;-73
2023/05/21 01:43:08;;;;;;;23.75;19.20;;;13.50;99.90;;;12.64;100.00;97554.88;4988217;28;20565;-72
2023/05/21 01:45:39;;;;;;;22.77;19.75;;;13.50;99.90;;;12.63;100.00;97555.75;5007279;28;20153;-73
2023/05/21 01:48:08;;;;;;;22.27;18.63;;;13.40;99.90;;;12.59;100.00;97553.41;4997099;28;20235;-73
2023/05/21 01:50:37;;;;;;;23.58;19.98;;;13.40;99.90;;;12.58;100.00;97559.53;4991692;28;20054;-73
2023/05/21 01:53:04;;;;;;;23.70;18.88;;;13.40;99.90;;;12.57;100.00;97558.72;4993557;28;20049;-73
2023/05/21 01:55:32;;;;;;;21.02;18.75;;;13.40;99.90;;;12.57;100.00;97558.72;5012418;28;20262;-73
2023/05/21 01:57:59;;;;;;;25.58;20.25;;;13.40;99.90;;;12.53;100.00;97551.97;5009063;28;20057;-73
2023/05/21 02:00:29;;;;;;;24.20;19.45;;;13.40;99.90;;;12.54;100.00;97554.50;4995085;28;20419;-73
2023/05/21 02:02:57;;;;;;;23.67;21.13;;;13.30;99.90;;;12.48;100.00;97549.59;4994568;28;20439;-73
2023/05/21 02:05:25;;;;;;;24.90;20.55;;;13.30;99.90;;;12.46;100.00;97556.63;4999272;28;20041;-72
2023/05/21 02:07:58;;;;;;;26.02;20.45;;;13.30;99.90;;;12.44;100.00;97544.63;4992693;28;20383;-73
2023/05/21 02:10:26;;;;;;;24.17;20.42;;;13.30;99.90;;;12.39;100.00;97551.81;5006053;28;20153;-73
2023/05/21 02:12:52;;;;;;;23.27;19.55;;;13.30;99.90;;;12.40;100.00;97551.72;5001198;28;20089;-73
2023/05/21 02:15:20;;;;;;;24.42;20.48;;;13.20;99.90;;;12.39;100.00;97549.22;4973580;28;20082;-73
2023/05/21 02:17:47;;;;;;;23.77;20.88;;;13.20;99.90;;;12.38;100.00;97558.78;4990168;28;20563;-72
2023/05/21 02:20:14;;;;;;;25.85;20.85;;;13.20;99.90;;;12.40;100.00;97554.34;4989957;28;20065;-72
2023/05/21 02:22:45;;;;;;;22.42;19.60;;;13.20;99.90;;;12.42;100.00;97551.66;4978577;28;20475;-73
2023/05/21 02:25:14;;;;;;;24.30;20.95;;;13.20;99.90;;;12.44;100.00;97542.84;4978930;28;20286;-72
2023/05/21 02:27:43;;;;;;;23.33;20.48;;;13.20;99.90;;;12.43;100.00;97542.91;4992425;28;20046;-72
2023/05/21 02:30:13;;;;;;;25.10;21.40;;;13.20;99.90;;;12.39;100.00;97549.22;4976193;28;20054;-72
2023/05/21 02:32:43;;;;;;;34.10;22.60;;;13.20;99.90;;;12.42;100.00;97547.28;4985724;28;20046;-72
2023/05/21 02:35:12;;;;;;;24.55;20.75;;;13.20;99.90;;;12.41;100.00;97550.00;4982697;28;20051;-73
2023/05/21 02:37:40;;;;;;;23.65;21.05;;;13.20;99.90;;;12.41;100.00;97550.81;4986217;28;20137;-72
2023/05/21 02:40:08;;;;;;;25.05;20.90;;;13.30;99.90;;;12.45;100.00;97549.75;4986622;28;20127;-73
2023/05/21 02:42:38;;;;;;;25.73;20.40;;;13.20;99.90;;;12.46;100.00;97546.22;4994292;28;20057;-73
2023/05/21 02:45:11;;;;;;;23.42;20.27;;;13.20;99.90;;;12.46;100.00;97546.22;4993734;28;20441;-73
2023/05/21 02:47:38;;;;;;;24.15;20.42;;;13.20;99.90;;;12.44;100.00;97548.06;4987090;28;20521;-73
2023/05/21 02:50:07;;;;;;;26.00;21.77;;;13.20;99.90;;;12.41;100.00;97543.03;4970137;28;20065;-72
2023/05/21 02:52:34;;;;;;;27.67;20.55;;;13.20;99.90;;;12.39;100.00;97547.47;4990273;28;20046;-73
2023/05/21 02:55:01;;;;;;;23.27;20.55;;;13.20;99.90;;;12.44;100.00;97548.06;4967028;28;20060;-72
2023/05/21 02:57:28;;;;;;;24.45;19.33;;;13.20;99.90;;;12.40;100.00;97545.69;4982333;28;20045;-73
2023/05/21 02:59:56;;;;;;;23.75;20.70;;;13.20;99.90;;;12.39;100.00;97542.25;4984938;28;20057;-73
2023/05/21 03:02:23;;;;;;;28.23;20.80;;;13.20;99.90;;;12.44;100.00;97549.81;4985404;28;21044;-73
2023/05/21 03:04:50;;;;;;;26.92;21.42;;;13.20;99.90;;;12.45;100.00;97547.16;4968969;28;20415;-73
2023/05/21 03:07:18;;;;;;;26.38;21.33;;;13.20;99.90;;;12.49;100.00;97545.22;4985590;28;20567;-73
2023/05/21 03:09:46;;;;;;;24.85;20.73;;;13.30;99.90;;;12.44;100.00;97545.47;4983755;28;20851;-73
2023/05/21 03:12:13;;;;;;;23.73;20.90;;;13.20;99.90;;;12.48;100.00;97543.56;4970446;28;20610;-73
2023/05/21 03:14:45;;;;;;;25.08;20.02;;;13.20;99.90;;;12.52;100.00;97545.06;4985547;28;20129;-73
2023/05/21 03:17:15;;;;;;;23.35;20.67;;;13.20;99.90;;;12.54;100.00;97540.63;4986282;28;20058;-73
2023/05/21 03:19:43;;;;;;;24.67;21.30;;;13.20;99.90;;;12.56;100.00;97541.38;4983315;28;20501;-74
2023/05/21 03:22:11;;;;;;;26.08;21.13;;;13.30;99.90;;;12.57;100.00;97545.69;4985289;28;20054;-73
2023/05/21 03:24:38;;;;;;;27.77;21.40;;;13.30;99.90;;;12.53;100.00;97533.75;4987520;28;20045;-73
2023/05/21 03:27:06;;;;;;;25.20;21.30;;;13.30;99.90;;;12.54;100.00;97533.66;4974347;28;20048;-73
2023/05/21 03:29:35;;;;;;;26.60;20.85;;;13.30;99.90;;;12.52;100.00;97534.63;4988432;28;20134;-72
2023/05/21 03:32:02;;;;;;;22.85;20.38;;;13.30;99.90;;;12.51;100.00;97536.41;4991233;28;20430;-73
2023/05/21 03:34:29;;;;;;;28.15;20.80;;;13.30;99.90;;;12.47;100.00;97542.69;4988288;28;20057;-73
2023/05/21 03:36:57;;;;;;;23.75;19.55;;;13.30;99.90;;;12.47;100.00;97542.69;4988500;28;20502;-73
2023/05/21 03:39:24;;;;;;;27.58;20.67;;;13.30;99.90;;;12.49;100.00;97545.22;4973276;28;20077;-73
2023/05/21 03:41:51;;;;;;;26.63;21.35;;;13.30;99.90;;;12.47;100.00;97544.47;4988397;28;20061;-73
2023/05/21 03:44:18;;;;;;;25.40;21.55;;;13.30;99.90;;;12.49;100.00;97542.63;4969829;28;20054;-72
2023/05/21 03:46:45;;;;;;;29.65;20.55;;;13.20;99.90;;;12.43;100.00;97543.78;4986194;28;20076;-73
2023/05/21 03:49:13;;;;;;;22.63;20.08;;;13.20;99.90;;;12.45;100.00;97544.56;4992622;28;20058;-73
2023/05/21 03:51:40;;;;;;;25.23;20.88;;;13.20;99.90;;;12.45;100.00;97547.16;4991348;28;20074;-73
2023/05/21 03:54:08;;;;;;;27.55;21.73;;;13.20;99.90;;;12.45;100.00;97544.56;4984839;28;20054;-72
2023/05/21 03:56:35;;;;;;;24.95;19.92;;;13.20;99.90;;;12.45;100.00;97554.09;4992871;28;20098;-73
2023/05/21 03:59:02;;;;;;;23.33;19.38;;;13.30;99.90;;;12.45;100.00;97554.97;4973218;28;20079;-73
2023/05/21 04:01:29;;;;;;;24.25;20.17;;;13.30;99.90;;;12.46;100.00;97548.00;4961059;28;20125;-73
2023/05/21 04:03:56;;;;;;;26.67;20.63;;;13.20;99.90;;;12.44;100.00;97552.44;4991145;28;20054;-73
2023/05/21 04:06:23;;;;;;;22.90;18.67;;;13.20;99.90;;;12.47;100.00;97552.25;4993439;28;20053;-73
2023/05/21 04:08:51;;;;;;;25.95;19.42;;;13.30;99.90;;;12.48;100.00;97557.41;4992777;28;20719;-73
2023/05/21 04:11:18;;;;;;;27.33;21.17;;;13.20;99.90;;;12.49;100.00;97553.03;4971758;28;20057;-72
2023/05/21 04:13:46;;;;;;;25.90;19.60;;;13.30;99.90;;;12.56;100.00;97560.44;4988140;28;20047;-72
2023/05/21 04:16:17;;;;;;;22.90;20.00;;;13.30;99.90;;;12.61;100.00;97556.78;4993428;28;20058;-73
2023/05/21 04:18:45;;;;;;;27.55;19.70;;;13.30;99.90;;;12.56;100.00;97554.41;4977731;28;20635;-73
2023/05/21 04:21:13;;;;;;;25.95;20.92;;;13.30;99.90;;;12.60;100.00;97552.50;4974062;28;20111;-73
2023/05/21 04:23:40;;;;;;;27.23;20.55;;;13.30;99.90;;;12.66;100.00;97554.78;4997487;28;20129;-73
2023/05/21 04:26:07;;;;;;;25.25;20.40;;;13.40;99.90;;;12.68;100.00;97555.53;4979241;28;20481;-73
2023/05/21 04:28:35;;;;;;;22.08;18.63;;;13.40;99.90;;;12.73;100.00;97554.38;4958622;28;20505;-73
2023/05/21 04:31:02;;;;;;;23.42;19.83;;;13.50;99.90;;;12.76;100.00;97543.81;4993215;28;20053;-73
2023/05/21 04:33:29;;;;;;;22.80;19.52;;;13.50;99.90;;;12.75;100.00;97546.50;5006380;28;20045;-72
2023/05/21 04:35:57;;;;;;;22.92;19.75;;;13.50;99.90;;;12.84;100.00;97546.03;4995429;28;20081;-73
2023/05/21 04:38:24;;;;;;;23.60;18.67;;;13.60;99.90;;;12.89;100.00;97546.63;4977687;28;20173;-72
2023/05/21 04:40:52;;;;;;;21.60;18.50;;;13.60;99.90;;;12.94;100.00;97542.00;4988790;28;20051;-73
2023/05/21 04:43:24;;;;;;;21.77;18.08;;;13.60;99.90;;;12.97;100.00;97552.25;4989337;28;20102;-72
2023/05/21 04:45:53;;;;;;;24.17;18.67;;;13.70;99.90;;;12.98;100.00;97551.34;4968168;28;20749;-72
2023/05/21 04:48:27;;;;;;;20.73;17.83;;;13.70;99.90;;;13.05;100.00;97544.06;4972464;28;20057;-72
2023/05/21 04:50:55;;;;;;;21.70;17.85;;;13.70;99.90;;;13.15;100.00;97550.44;4992828;28;20121;-72
2023/05/21 04:53:24;;;;;;;20.80;17.95;;;13.80;99.90;;;13.24;100.00;97543.06;4972684;28;20137;-73
2023/05/21 04:55:52;;;;;;;25.60;18.25;;;13.80;99.90;;;13.31;100.00;97534.84;4993183;28;20050;-73
2023/05/21 04:58:19;;;;;;;22.85;18.02;;;13.90;99.90;;;13.40;100.00;97530.91;4991481;28;20114;-73
2023/05/21 05:00:49;;;;;;;24.27;19.05;;;14.00;99.90;;;13.47;100.00;97529.63;4992376;28;20053;-73
2023/05/21 05:03:17;;;;;;;20.73;18.23;;;14.00;99.90;;;13.59;100.00;97515.06;4974253;28;20046;-72
2023/05/21 05:05:45;;;;;;;23.05;17.50;;;14.10;99.90;;;13.69;100.00;97520.66;4977805;28;20533;-72
2023/05/21 05:08:12;;;;;;;23.27;17.70;;;14.20;99.90;;;13.83;100.00;97512.88;4966517;28;20133;-73
2023/05/21 05:10:41;;;;;;;24.15;18.15;;;14.30;99.90;;;13.94;100.00;97499.22;4989083;28;20051;-73
2023/05/21 05:13:08;;;;;;;21.95;17.33;;;14.50;99.90;;;14.05;100.00;97494.22;4967758;28;20051;-73
2023/05/21 05:15:36;;;;;;;21.58;17.48;;;14.60;99.90;;;14.19;100.00;97486.41;4988697;28;20043;-73
2023/05/21 05:18:03;;;;;;;23.40;17.42;;;14.70;99.90;;;14.19;100.00;97475.97;4956920;28;20147;-73
2023/05/21 05:20:30;;;;;;;18.73;15.65;;;14.80;99.90;;;14.25;100.00;97479.16;4986002;28;20051;-73
2023/05/21 05:22:57;;;;;;;23.92;17.00;;;14.90;99.90;;;14.43;100.00;97463.22;4956890;28;20141;-73
2023/05/21 05:25:24;;;;;;;19.27;17.23;;;14.90;99.90;;;14.51;100.00;97459.34;4952631;28;20086;-73
2023/05/21 05:27:51;;;;;;;19.63;15.82;;;15.00;99.90;;;14.73;100.00;97451.03;4982372;28;20102;-73
2023/05/21 05:30:19;;;;;;;20.10;15.68;;;15.20;99.90;;;14.78;100.00;97451.59;4978579;28;20130;-73
2023/05/21 05:32:46;;;;;;;17.90;14.65;;;15.30;99.90;;;14.81;100.00;97443.59;4973392;28;20090;-73
2023/05/21 05:35:13;;;;;;;18.52;15.55;;;15.40;99.90;;;14.85;100.00;97438.06;4994949;28;20101;-73
2023/05/21 05:37:41;;;;;;;23.70;16.90;;;15.30;99.90;;;14.89;100.00;97424.81;4990815;28;20106;-73
2023/05/21 05:40:08;;;;;;;20.10;15.35;;;15.40;99.90;;;14.80;100.00;97421.84;4987002;28;20080;-73
2023/05/21 05:42:35;;;;;;;18.77;15.95;;;15.40;99.90;;;14.78;100.00;97418.50;4990085;28;20074;-73
2023/05/21 05:45:02;;;;;;;21.67;16.08;;;15.50;99.90;;;14.95;100.00;97408.75;4991036;28;20054;-73
2023/05/21 05:47:30;;;;;;;19.52;15.32;;;15.50;99.90;;;14.80;100.00;97415.75;4963733;28;20600;-74
2023/05/21 05:49:57;;;;;;;19.65;15.65;;;15.50;99.90;;;14.85;100.00;97418.94;4962151;28;20137;-73
2023/05/21 05:52:41;;;;;;;20.02;15.45;;;15.60;99.90;;;14.90;100.00;97418.66;4984128;28;20427;-73
2023/05/21 05:55:11;;;;;;;17.85;14.63;;;15.60;99.90;;;15.06;100.00;97416.75;4976575;28;20108;-73
2023/05/21 05:57:38;;;;;;;20.08;15.60;;;15.70;99.90;;;15.14;100.00;97404.03;4977366;28;20141;-73
2023/05/21 06:00:08;;;;;;;16.75;14.77;;;15.70;99.90;;;15.18;100.00;97402.88;4976472;28;20051;-73
2023/05/21 06:02:35;;;;;;;21.02;15.82;;;15.80;99.90;;;15.12;100.00;97395.47;4990099;28;20046;-73
2023/05/21 06:05:05;;;;;;;19.02;14.88;;;15.80;99.90;;;15.24;100.00;97394.66;4973219;28;20105;-73
2023/05/21 06:07:32;;;;;;;15.35;13.70;;;15.90;99.90;;;15.13;100.00;97388.44;4969216;28;20983;-73
2023/05/21 06:10:00;;;;;;;17.50;15.38;;;15.90;99.90;;;15.29;100.00;97388.31;4984594;28;20054;-73
2023/05/21 06:12:27;;;;;;;18.05;14.90;;;15.90;99.90;;;15.22;100.00;97399.16;4971532;28;20042;-73
2023/05/21 06:14:54;;;;;;;18.55;15.55;;;15.90;99.90;;;15.35;100.00;97386.13;4986307;28;20058;-73
2023/05/21 06:17:21;;;;;;;22.77;15.38;;;16.00;99.90;;;15.55;100.00;97395.28;4990280;28;20049;-73
2023/05/21 06:19:48;;;;;;;19.05;14.80;;;16.10;99.90;;;15.60;100.00;97395.84;4978923;28;20073;-73
2023/05/21 06:22:15;;;;;;;18.80;14.82;;;16.10;99.90;;;15.69;100.00;97387.38;4993629;28;20038;-73
2023/05/21 06:24:42;;;;;;;18.08;15.63;;;16.20;99.90;;;15.71;100.00;97386.44;4976082;28;20124;-73
2023/05/21 06:27:10;;;;;;;18.02;13.70;;;16.30;99.90;;;15.80;100.00;97381.44;4987003;28;20046;-73
2023/05/21 06:29:39;;;;;;;18.40;14.27;;;16.40;99.90;;;16.16;100.00;97381.69;4983140;28;20420;-74
2023/05/21 06:32:08;;;;;;;19.98;14.20;;;16.40;99.90;;;16.04;100.00;97381.56;4975412;28;20196;-73
2023/05/21 06:34:36;;;;;;;19.30;14.63;;;16.60;99.90;;;16.18;100.00;97378.00;4983224;28;20065;-74
2023/05/21 06:37:03;;;;;;;16.90;13.63;;;16.60;99.90;;;16.17;100.00;97376.34;4973132;28;20470;-73
2023/05/21 06:39:30;;;;;;;18.60;14.48;;;16.70;99.90;;;16.25;100.00;97373.19;4988430;28;20467;-73
2023/05/21 06:42:00;;;;;;;17.50;14.88;;;16.90;99.90;;;16.10;100.00;97365.47;4991090;28;20104;-73
2023/05/21 06:44:27;;;;;;;17.25;13.80;;;16.80;99.90;;;16.22;100.00;97369.00;4947483;28;20050;-73
2023/05/21 06:46:54;;;;;;;16.42;13.07;;;17.00;99.90;;;16.26;100.00;97364.38;4973451;28;20053;-73
2023/05/21 06:49:22;;;;;;;17.42;13.27;;;16.90;99.90;;;16.49;100.00;97370.69;4989801;28;20046;-73
2023/05/21 06:51:49;;;;;;;20.00;14.05;;;17.00;99.90;;;16.59;100.00;97363.81;4992175;28;20049;-73
2023/05/21 06:54:16;;;;;;;15.75;12.68;;;17.20;99.90;;;16.83;100.00;97357.81;4973301;28;20078;-73
2023/05/21 06:56:43;;;;;;;19.73;13.70;;;17.30;99.90;;;16.84;100.00;97355.09;4982427;28;20511;-73
2023/05/21 06:59:10;;;;;;;16.27;13.48;;;17.40;99.90;;;16.87;100.00;97361.91;4988209;28;20773;-74
2023/05/21 07:01:41;;;;;;;15.73;12.30;;;17.40;99.90;;;17.14;100.00;97353.81;4988544;28;20048;-74
2023/05/21 07:04:09;;;;;;;17.00;14.00;;;17.50;99.90;;;17.02;100.00;97358.19;4977105;28;20051;-73
2023/05/21 07:06:38;;;;;;;14.45;11.85;;;17.60;99.90;;;17.28;100.00;97350.19;4951541;28;20514;-73
2023/05/21 07:09:05;;;;;;;18.23;13.05;;;17.70;99.90;;;17.23;100.00;97354.94;4979637;28;20053;-73
2023/05/21 07:11:32;;;;;;;15.18;12.27;;;17.70;99.90;;;17.09;100.00;97358.56;4990773;28;20101;-73
2023/05/21 07:14:00;;;;;;;15.45;12.77;;;17.70;99.90;;;17.24;100.00;97354.84;4992546;28;20054;-73
2023/05/21 07:16:27;;;;;;;13.90;11.93;;;17.80;99.90;;;17.18;100.00;97349.22;4996854;28;20157;-73
2023/05/21 07:18:54;;;;;;;15.63;11.90;;;17.80;99.90;;;17.23;100.00;97349.69;5000055;28;20052;-74
2023/05/21 07:21:22;;;;;;;17.48;13.43;;;17.80;99.90;;;16.88;100.00;97353.09;5001559;28;20136;-74
2023/05/21 07:23:49;;;;;;;17.23;12.38;;;17.80;99.90;;;17.14;100.00;97348.59;4985273;28;20049;-73
2023/05/21 07:26:16;;;;;;;13.95;12.52;;;17.80;99.90;;;17.10;100.00;97355.00;5009667;28;20046;-73
2023/05/21 07:28:44;;;;;;;15.18;12.52;;;17.80;99.90;;;16.92;100.00;97354.53;5010048;28;20057;-74
2023/05/21 07:31:11;;;;;;;14.80;12.82;;;17.80;99.90;;;17.20;100.00;97350.78;4996603;28;20068;-73
2023/05/21 07:33:39;;;;;;;16.08;12.05;;;17.80;99.90;;;17.07;100.00;97350.81;5010883;28;20148;-73
2023/05/21 07:36:06;;;;;;;13.57;11.32;;;17.80;99.90;;;16.86;100.00;97350.59;5005175;28;20062;-74
2023/05/21 07:38:33;;;;;;;14.48;11.93;;;17.80;99.90;;;17.06;100.00;97348.28;4979417;28;20574;-74
2023/05/21 07:41:01;;;;;;;14.45;12.18;;;17.80;99.90;;;17.32;100.00;97342.00;4981093;28;20058;-73
2023/05/21 07:43:28;;;;;;;17.70;12.20;;;17.80;99.90;;;17.33;100.00;97348.06;4984100;28;20066;-73
2023/05/21 07:45:57;;;;;;;17.67;12.68;;;17.80;99.90;;;17.60;100.00;97339.94;4997655;28;20057;-74
2023/05/21 07:48:25;;;;;;;15.00;12.43;;;18.00;99.90;;;17.64;100.00;97345.81;4984089;28;20565;-73
2023/05/21 07:50:53;;;;;;;14.00;11.52;;;18.10;99.90;;;17.79;100.00;97339.41;5009831;28;20089;-73
2023/05/21 07:53:21;;;;;;;15.25;12.10;;;18.20;99.90;;;17.83;100.00;97338.22;5002947;28;20042;-74
2023/05/21 07:55:48;;;;;;;14.73;11.65;;;18.30;99.90;;;17.91;100.00;97324.53;4989062;28;20081;-74
2023/05/21 07:58:17;;;;;;;13.50;11.55;;;18.40;99.90;;;18.24;100.00;97322.88;4989997;28;20077;-73
2023/05/21 08:00:46;;;;;;;14.00;11.32;;;18.50;99.90;;;18.12;100.00;97328.13;4990042;28;20043;-74
2023/05/21 08:03:17;;;;;;;13.82;11.52;;;18.60;99.90;;;17.86;100.00;97329.28;4993768;28;20058;-74
2023/05/21 08:05:49;;;;;;;16.48;11.07;;;18.60;99.90;;;18.12;100.00;97325.50;4985457;28;20547;-74
2023/05/21 08:08:20;;;;;;;15.77;11.48;;;18.60;99.90;;;18.05;100.00;97326.94;4997117;28;20047;-74
2023/05/21 08:10:48;;;;;;;13.40;11.93;;;18.70;99.90;;;18.11;100.00;97331.72;4992639;28;20057;-74
2023/05/21 08:13:16;;;;;;;15.40;11.90;;;18.80;99.90;;;18.41;100.00;97325.03;5003094;28;20137;-74
2023/05/21 08:15:43;;;;;;;14.30;11.30;;;18.80;99.90;;;18.16;100.00;97326.13;4990616;28;20084;-74
2023/05/21 08:18:10;;;;;;;17.23;11.65;;;18.90;99.90;;;18.13;100.00;97318.44;4985503;28;20049;-74
2023/05/21 08:20:37;;;;;;;14.18;11.13;;;18.80;99.90;;;18.36;100.00;97325.41;5006759;28;20077;-73
2023/05/21 08:23:08;;;;;;;14.68;12.32;;;18.90;99.90;;;18.57;100.00;97314.16;4989297;28;20047;-74
2023/05/21 08:25:35;;;;;;;13.90;11.88;;;18.90;99.90;;;18.61;100.00;97312.97;5002271;28;20474;-74
2023/05/21 08:28:02;;;;;;;14.57;11.70;;;19.10;99.90;;;18.90;100.00;97310.63;5008138;28;20056;-74
2023/05/21 08:30:29;;;;;;;16.65;11.85;;;19.30;99.90;;;19.08;100.00;97318.00;5010362;28;20132;-74
2023/05/21 08:32:57;;;;;;;15.77;11.82;;;19.40;99.90;;;19.31;100.00;97310.84;5009099;28;20463;-74
2023/05/21 08:35:24;;;;;;;13.30;11.20;;;19.60;99.90;;;19.80;100.00;97312.06;5008986;28;20056;-74
2023/05/21 08:37:52;;;;;;;12.65;11.18;;;19.90;99.90;;;20.43;100.00;97298.75;5009254;28;20057;-74
2023/05/21 08:40:19;;;;;;;13.38;11.23;;;20.20;99.90;;;20.46;100.00;97301.97;4996416;28;20687;-74
2023/05/21 08:42:51;;;;;;;11.57;10.05;;;20.70;99.90;;;21.07;100.00;97302.81;4992891;28;20096;-75
2023/05/21 08:45:22;;;;;;;14.97;11.23;;;21.00;99.90;;;20.75;100.00;97306.50;4982658;28;20054;-75
2023/05/21 08:47:57;;;;;;;13.55;10.68;;;21.40;99.90;;;21.32;100.00;97293.50;4999203;28;20053;-74
2023/05/21 08:50:26;;;;;;;11.65;9.55;;;21.50;99.90;;;21.97;100.00;97287.63;5000002;28;20600;-74
2023/05/21 08:52:54;;;;;;;12.73;9.77;;;21.90;99.90;;;21.75;100.00;97294.06;4996801;28;20085;-75
2023/05/21 08:55:22;;;;;;;9.93;8.43;;;22.10;99.90;;;20.98;100.00;97287.81;4986384;28;20104;-74
2023/05/21 08:57:52;;;;;;;16.70;9.57;;;22.60;99.90;;;21.45;100.00;97286.16;5008891;28;20132;-74
2023/05/21 09:00:20;;;;;;;10.40;9.30;;;22.60;99.90;;;21.77;100.00;97290.28;4992649;28;20046;-74
2023/05/21 09:02:47;;;;;;;12.32;9.43;;;22.90;99.90;;;21.90;100.00;97287.34;5011755;28;20080;-75
2023/05/21 09:05:16;;;;;;;15.07;10.05;;;22.90;99.90;;;22.53;100.00;97284.03;5010751;28;20120;-75
2023/05/21 09:08:05;;;;;;;15.20;10.10;;;23.60;99.90;;;22.60;100.00;97286.94;5005218;28;20042;-75
2023/05/21 09:10:44;;;;;;;9.88;8.88;;;24.20;99.90;;;23.03;100.00;97285.44;5004160;28;20045;-76
2023/05/21 09:13:12;;;;;;;10.85;9.35;;;24.40;99.90;;;23.35;100.00;97279.59;4990274;28;20050;-75
2023/05/21 09:15:40;;;;;;;12.68;9.35;;;25.10;99.90;;;23.45;100.00;97282.19;5007208;28;20100;-75
2023/05/21 09:18:07;;;;;;;14.35;8.82;;;25.50;99.90;;;23.54;100.00;97275.97;4993416;28;20042;-76
2023/05/21 09:20:35;;;;;;;10.18;8.75;;;25.40;99.90;;;24.71;100.00;97275.47;5005447;28;20057;-75
2023/05/21 09:23:05;;;;;;;9.48;8.25;;;26.00;99.90;;;24.20;100.00;97274.59;4993206;28;20160;-76
2023/05/21 09:25:37;;;;;;;9.30;7.82;;;26.50;99.90;;;24.02;100.00;97272.00;4989002;28;20855;-75
2023/05/21 09:28:15;;;;;;;9.75;8.23;;;26.40;99.90;;;24.01;100.00;97265.84;4993385;28;20042;-75
2023/05/21 09:30:54;;;;;;;12.55;7.85;;;26.40;99.90;;;23.84;100.00;97273.88;4975686;28;20050;-75
2023/05/21 09:33:28;;;;;;;12.13;8.13;;;26.10;99.90;;;24.08;100.00;97268.69;4986425;28;20054;-75
2023/05/21 09:35:56;;;;;;;9.30;8.23;;;25.70;99.90;;;24.78;100.00;97265.03;4983393;28;20086;-75
2023/05/21 09:38:24;;;;;;;10.15;8.38;;;25.90;99.90;;;23.89;100.00;97272.41;4993364;28;20103;-76
2023/05/21 09:40:57;;;;;;;9.80;7.78;;;26.10;99.90;;;24.45;100.00;97269.38;4992049;28;20054;-75
2023/05/21 09:43:24;;;;;;;10.68;8.45;;;26.00;99.90;;;24.38;100.00;97272.69;4994404;28;20049;-74
2023/05/21 09:45:54;;;;;;;9.40;7.75;;;26.20;99.90;;;24.22;100.00;97261.97;5009952;28;20050;-74
2023/05/21 09:48:43;;;;;;;9.38;7.05;;;26.00;99.90;;;24.30;100.00;97267.31;4988900;28;20046;-75
2023/05/21 09:51:11;;;;;;;11.57;7.85;;;26.40;99.90;;;24.87;100.00;97266.72;4980031;28;20109;-75
2023/05/21 09:53:58;;;;;;;8.52;7.38;;;26.30;99.90;;;24.15;100.00;97274.22;4967802;28;20399;-76
2023/05/21 09:56:30;;;;;;;13.43;7.82;;;26.10;99.90;;;24.63;100.00;97264.81;5005189;28;20541;-74
2023/05/21 09:59:05;;;;;;;7.90;6.90;;;26.00;99.90;;;24.66;100.00;97269.81;5010280;28;20501;-74
2023/05/21 10:01:33;;;;;;;8.98;7.60;;;26.10;99.90;;;24.03;100.00;97270.19;4993887;28;20102;-74
2023/05/21 10:04:06;;;;;;;10.77;8.15;;;26.10;99.90;;;24.34;100.00;97270.50;5004468;28;20082;-76
2023/05/21 10:06:46;;;;;;;9.27;8.20;;;25.60;99.90;;;24.95;100.00;97271.19;4966525;28;20060;-76
2023/05/21 10:09:17;;;;;;;8.77;7.88;;;25.90;99.90;;;24.78;100.00;97276.47;4980771;28;20136;-75